sensor_id;sensor_type;location;lat;lon;timestamp;pressure;altitude;pressure_sealevel;temperature;humidity
24588;BME280;12744;52.270;9.746;2022-09-01T00:00:50;102816.25;;;14.29;nan
24588;BME280;12744;52.270;9.746;2022-09-01T00:03:21;102822.13;;;14.26;nan
24588;BME280;12744;52.270;9.746;2022-09-01T00:05:55;102837.66;;;14.26;nan
24588;BME280;12744;52.270;9.746;2022-09-01T00:08:26;102850.75;;;14.17;nan
24588;BME280;12744;52.270;9.746;2022-09-01T00:10:57;102854.88;;;14.02;nan
24588;BME280;12744;52.270;9.746;2022-09-01T00:13:28;102874.53;;;14.10;nan
24588;BME280;12744;52.270;9.746;2022-09-01T00:16:03;102879.06;;;13.92;nan
24588;BME280;12744;52.270;9.746;2022-09-01T00:18:34;102892.94;;;13.90;nan
24588;BME280;12744;52.270;9.746;2022-09-01T00:21:05;102916.97;;;13.68;nan
24588;BME280;12744;52.270;9.746;2022-09-01T00:23:36;102948.09;;;13.48;nan
24588;BME280;12744;52.270;9.746;2022-09-01T00:26:07;102998.19;;;13.40;nan
24588;BME280;12744;52.270;9.746;2022-09-01T00:28:39;103011.44;;;13.30;nan
24588;BME280;12744;52.270;9.746;2022-09-01T00:31:11;103035.09;;;13.23;nan
24588;BME280;12744;52.270;9.746;2022-09-01T00:33:44;103061.25;;;13.44;nan
24588;BME280;12744;52.270;9.746;2022-09-01T00:36:17;103051.00;;;13.26;nan
24588;BME280;12744;52.270;9.746;2022-09-01T00:38:50;103066.72;;;13.24;nan
24588;BME280;12744;52.270;9.746;2022-09-01T00:41:27;103100.84;;;13.33;nan
24588;BME280;12744;52.270;9.746;2022-09-01T00:44:02;103115.75;;;13.11;nan
24588;BME280;12744;52.270;9.746;2022-09-01T00:46:42;103142.72;;;12.99;nan
24588;BME280;12744;52.270;9.746;2022-09-01T00:49:17;103175.59;;;12.98;nan
24588;BME280;12744;52.270;9.746;2022-09-01T00:51:53;103170.31;;;12.77;nan
24588;BME280;12744;52.270;9.746;2022-09-01T00:54:30;103230.22;;;12.90;nan
24588;BME280;12744;52.270;9.746;2022-09-01T00:57:03;103223.47;;;12.79;nan
24588;BME280;12744;52.270;9.746;2022-09-01T00:59:35;103263.50;;;12.92;nan
24588;BME280;12744;52.270;9.746;2022-09-01T01:02:08;103274.03;;;13.08;nan
24588;BME280;12744;52.270;9.746;2022-09-01T01:04:41;103290.78;;;13.11;nan
24588;BME280;12744;52.270;9.746;2022-09-01T01:07:14;103282.78;;;13.03;nan
24588;BME280;12744;52.270;9.746;2022-09-01T01:09:45;103297.06;;;13.18;nan
24588;BME280;12744;52.270;9.746;2022-09-01T01:12:17;103304.66;;;13.30;nan
24588;BME280;12744;52.270;9.746;2022-09-01T01:14:49;103302.97;;;13.22;nan
24588;BME280;12744;52.270;9.746;2022-09-01T01:17:21;103275.66;;;12.96;nan
24588;BME280;12744;52.270;9.746;2022-09-01T01:19:55;103294.50;;;13.04;nan
24588;BME280;12744;52.270;9.746;2022-09-01T01:23:08;103291.56;;;12.99;nan
24588;BME280;12744;52.270;9.746;2022-09-01T01:25:45;103317.59;;;13.14;nan
24588;BME280;12744;52.270;9.746;2022-09-01T01:28:21;103319.69;;;13.12;nan
24588;BME280;12744;52.270;9.746;2022-09-01T01:30:58;103312.91;;;12.95;nan
24588;BME280;12744;52.270;9.746;2022-09-01T01:33:34;103319.22;;;13.02;nan
24588;BME280;12744;52.270;9.746;2022-09-01T01:36:23;103323.81;;;13.02;nan
24588;BME280;12744;52.270;9.746;2022-09-01T01:39:06;103253.75;;;12.09;nan
24588;BME280;12744;52.270;9.746;2022-09-01T01:41:41;103294.59;;;12.22;nan
24588;BME280;12744;52.270;9.746;2022-09-01T01:44:18;103345.28;;;12.36;nan
24588;BME280;12744;52.270;9.746;2022-09-01T01:46:52;103394.63;;;12.68;nan
24588;BME280;12744;52.270;9.746;2022-09-01T01:49:26;103394.75;;;12.53;nan
24588;BME280;12744;52.270;9.746;2022-09-01T01:52:01;103394.94;;;12.51;nan
24588;BME280;12744;52.270;9.746;2022-09-01T01:54:36;103390.00;;;12.62;nan
24588;BME280;12744;52.270;9.746;2022-09-01T01:57:08;103385.91;;;12.44;nan
24588;BME280;12744;52.270;9.746;2022-09-01T01:59:39;103388.28;;;12.54;nan
24588;BME280;12744;52.270;9.746;2022-09-01T02:02:10;103390.16;;;12.53;nan
24588;BME280;12744;52.270;9.746;2022-09-01T02:04:42;103384.94;;;12.59;nan
24588;BME280;12744;52.270;9.746;2022-09-01T02:07:15;103359.03;;;12.28;nan
24588;BME280;12744;52.270;9.746;2022-09-01T02:09:47;103352.22;;;12.11;nan
24588;BME280;12744;52.270;9.746;2022-09-01T02:12:19;103352.69;;;11.94;nan
24588;BME280;12744;52.270;9.746;2022-09-01T02:14:51;103417.72;;;12.23;nan
24588;BME280;12744;52.270;9.746;2022-09-01T02:17:24;103420.53;;;12.08;nan
24588;BME280;12744;52.270;9.746;2022-09-01T02:19:57;103449.13;;;12.25;nan
24588;BME280;12744;52.270;9.746;2022-09-01T02:22:29;103450.34;;;12.23;nan
24588;BME280;12744;52.270;9.746;2022-09-01T02:25:00;103479.59;;;11.93;nan
24588;BME280;12744;52.270;9.746;2022-09-01T02:27:32;103539.34;;;11.93;nan
24588;BME280;12744;52.270;9.746;2022-09-01T02:30:06;103606.66;;;12.33;nan
24588;BME280;12744;52.270;9.746;2022-09-01T02:32:41;103602.41;;;12.24;nan
24588;BME280;12744;52.270;9.746;2022-09-01T02:35:12;103638.31;;;12.62;nan
24588;BME280;12744;52.270;9.746;2022-09-01T02:37:45;103616.66;;;12.69;nan
24588;BME280;12744;52.270;9.746;2022-09-01T02:40:19;103596.66;;;12.83;nan
24588;BME280;12744;52.270;9.746;2022-09-01T02:42:51;103575.28;;;12.80;nan
24588;BME280;12744;52.270;9.746;2022-09-01T02:45:26;103548.25;;;12.50;nan
24588;BME280;12744;52.270;9.746;2022-09-01T02:47:59;103546.41;;;12.30;nan
24588;BME280;12744;52.270;9.746;2022-09-01T02:50:30;103574.56;;;12.22;nan
24588;BME280;12744;52.270;9.746;2022-09-01T02:53:03;103586.31;;;12.08;nan
24588;BME280;12744;52.270;9.746;2022-09-01T02:55:40;103651.03;;;11.98;nan
24588;BME280;12744;52.270;9.746;2022-09-01T02:58:12;103667.16;;;11.85;nan
24588;BME280;12744;52.270;9.746;2022-09-01T03:00:54;103709.84;;;11.91;nan
24588;BME280;12744;52.270;9.746;2022-09-01T03:03:25;103731.13;;;12.02;nan
24588;BME280;12744;52.270;9.746;2022-09-01T03:05:56;103694.84;;;11.66;nan
24588;BME280;12744;52.270;9.746;2022-09-01T03:08:28;103733.06;;;11.79;nan
24588;BME280;12744;52.270;9.746;2022-09-01T03:11:05;103759.31;;;11.86;nan
24588;BME280;12744;52.270;9.746;2022-09-01T03:13:41;103767.94;;;11.90;nan
24588;BME280;12744;52.270;9.746;2022-09-01T03:16:12;103783.22;;;12.06;nan
24588;BME280;12744;52.270;9.746;2022-09-01T03:18:44;103776.84;;;11.99;nan
24588;BME280;12744;52.270;9.746;2022-09-01T03:21:15;103773.31;;;11.98;nan
24588;BME280;12744;52.270;9.746;2022-09-01T03:23:50;103798.00;;;12.03;nan
24588;BME280;12744;52.270;9.746;2022-09-01T03:26:21;103790.34;;;12.07;nan
24588;BME280;12744;52.270;9.746;2022-09-01T03:28:54;103774.13;;;11.84;nan
24588;BME280;12744;52.270;9.746;2022-09-01T03:31:25;103773.97;;;11.63;nan
24588;BME280;12744;52.270;9.746;2022-09-01T03:34:02;103834.72;;;11.84;nan
24588;BME280;12744;52.270;9.746;2022-09-01T03:36:37;103861.09;;;11.99;nan
24588;BME280;12744;52.270;9.746;2022-09-01T03:39:09;103831.06;;;11.55;nan
24588;BME280;12744;52.270;9.746;2022-09-01T03:41:40;103879.03;;;11.40;nan
24588;BME280;12744;52.270;9.746;2022-09-01T03:44:27;103945.41;;;11.68;nan
24588;BME280;12744;52.270;9.746;2022-09-01T03:46:59;103976.13;;;11.68;nan
24588;BME280;12744;52.270;9.746;2022-09-01T03:49:32;104027.22;;;11.73;nan
24588;BME280;12744;52.270;9.746;2022-09-01T03:52:03;104027.81;;;11.83;nan
24588;BME280;12744;52.270;9.746;2022-09-01T03:54:37;104033.25;;;12.28;nan
24588;BME280;12744;52.270;9.746;2022-09-01T03:57:11;103982.84;;;12.40;nan
24588;BME280;12744;52.270;9.746;2022-09-01T03:59:42;103952.34;;;12.45;nan
24588;BME280;12744;52.270;9.746;2022-09-01T04:02:13;103932.75;;;12.49;nan
24588;BME280;12744;52.270;9.746;2022-09-01T04:04:44;103892.44;;;12.38;nan
24588;BME280;12744;52.270;9.746;2022-09-01T04:07:16;103883.34;;;12.31;nan
24588;BME280;12744;52.270;9.746;2022-09-01T04:09:47;103886.34;;;12.36;nan
24588;BME280;12744;52.270;9.746;2022-09-01T04:12:18;103873.75;;;12.06;nan
24588;BME280;12744;52.270;9.746;2022-09-01T04:14:55;103889.63;;;12.17;nan
24588;BME280;12744;52.270;9.746;2022-09-01T04:17:26;103902.38;;;12.31;nan
24588;BME280;12744;52.270;9.746;2022-09-01T04:20:15;103881.63;;;12.16;nan
24588;BME280;12744;52.270;9.746;2022-09-01T04:22:50;103878.47;;;12.12;nan
24588;BME280;12744;52.270;9.746;2022-09-01T04:25:22;103884.97;;;12.03;nan
24588;BME280;12744;52.270;9.746;2022-09-01T04:27:55;103897.25;;;11.99;nan
24588;BME280;12744;52.270;9.746;2022-09-01T04:30:27;103920.31;;;12.03;nan
24588;BME280;12744;52.270;9.746;2022-09-01T04:33:03;103912.31;;;11.87;nan
24588;BME280;12744;52.270;9.746;2022-09-01T04:35:38;103931.63;;;11.92;nan
24588;BME280;12744;52.270;9.746;2022-09-01T04:38:10;103953.19;;;11.94;nan
24588;BME280;12744;52.270;9.746;2022-09-01T04:40:41;103962.00;;;11.73;nan
24588;BME280;12744;52.270;9.746;2022-09-01T04:43:12;103973.94;;;11.86;nan
24588;BME280;12744;52.270;9.746;2022-09-01T04:45:45;103985.66;;;11.87;nan
24588;BME280;12744;52.270;9.746;2022-09-01T04:48:17;103985.72;;;11.79;nan
24588;BME280;12744;52.270;9.746;2022-09-01T04:50:51;104007.75;;;11.84;nan
24588;BME280;12744;52.270;9.746;2022-09-01T04:53:29;104027.81;;;11.83;nan
24588;BME280;12744;52.270;9.746;2022-09-01T04:56:03;104053.59;;;11.87;nan
24588;BME280;12744;52.270;9.746;2022-09-01T04:58:38;104074.31;;;11.88;nan
24588;BME280;12744;52.270;9.746;2022-09-01T05:01:33;104138.13;;;12.00;nan
24588;BME280;12744;52.270;9.746;2022-09-01T05:04:21;104142.19;;;11.96;nan
24588;BME280;12744;52.270;9.746;2022-09-01T05:06:56;104149.91;;;11.84;nan
24588;BME280;12744;52.270;9.746;2022-09-01T05:09:35;104174.03;;;11.79;nan
24588;BME280;12744;52.270;9.746;2022-09-01T05:12:17;104201.50;;;11.93;nan
24588;BME280;12744;52.270;9.746;2022-09-01T05:14:53;104194.69;;;11.88;nan
24588;BME280;12744;52.270;9.746;2022-09-01T05:17:26;104206.63;;;11.88;nan
24588;BME280;12744;52.270;9.746;2022-09-01T05:19:59;104218.59;;;12.01;nan
24588;BME280;12744;52.270;9.746;2022-09-01T05:22:31;104213.56;;;11.90;nan
24588;BME280;12744;52.270;9.746;2022-09-01T05:25:08;104217.16;;;11.82;nan
24588;BME280;12744;52.270;9.746;2022-09-01T05:27:57;104255.84;;;11.93;nan
24588;BME280;12744;52.270;9.746;2022-09-01T05:30:28;104312.63;;;12.26;nan
24588;BME280;12744;52.270;9.746;2022-09-01T05:33:00;104324.41;;;12.49;nan
24588;BME280;12744;52.270;9.746;2022-09-01T05:35:31;104329.28;;;12.62;nan
24588;BME280;12744;52.270;9.746;2022-09-01T05:38:06;104343.31;;;12.82;nan
24588;BME280;12744;52.270;9.746;2022-09-01T05:40:41;104355.13;;;12.97;nan
24588;BME280;12744;52.270;9.746;2022-09-01T05:43:13;104357.84;;;12.97;nan
24588;BME280;12744;52.270;9.746;2022-09-01T05:45:45;104372.13;;;13.07;nan
24588;BME280;12744;52.270;9.746;2022-09-01T05:48:16;104391.38;;;13.28;nan
24588;BME280;12744;52.270;9.746;2022-09-01T05:50:53;104419.22;;;13.38;nan
24588;BME280;12744;52.270;9.746;2022-09-01T05:53:29;104429.19;;;13.54;nan
24588;BME280;12744;52.270;9.746;2022-09-01T05:56:04;104437.50;;;13.52;nan
24588;BME280;12744;52.270;9.746;2022-09-01T05:58:38;104458.09;;;13.77;nan
24588;BME280;12744;52.270;9.746;2022-09-01T06:01:24;104477.75;;;13.96;nan
24588;BME280;12744;52.270;9.746;2022-09-01T06:03:56;104489.91;;;14.08;nan
24588;BME280;12744;52.270;9.746;2022-09-01T06:06:39;104509.13;;;14.29;nan
24588;BME280;12744;52.270;9.746;2022-09-01T06:09:16;104531.88;;;14.44;nan
24588;BME280;12744;52.270;9.746;2022-09-01T06:11:55;104562.63;;;14.75;nan
24588;BME280;12744;52.270;9.746;2022-09-01T06:14:29;104579.66;;;14.92;nan
24588;BME280;12744;52.270;9.746;2022-09-01T06:17:00;104612.16;;;15.16;nan
24588;BME280;12744;52.270;9.746;2022-09-01T06:19:32;104655.75;;;15.47;nan
24588;BME280;12744;52.270;9.746;2022-09-01T06:22:04;104657.06;;;15.51;nan
24588;BME280;12744;52.270;9.746;2022-09-01T06:24:37;104660.56;;;15.59;nan
24588;BME280;12744;52.270;9.746;2022-09-01T06:27:09;104699.25;;;15.92;nan
24588;BME280;12744;52.270;9.746;2022-09-01T06:29:40;104651.13;;;15.76;nan
24588;BME280;12744;52.270;9.746;2022-09-01T06:32:12;104682.91;;;16.13;nan
24588;BME280;12744;52.270;9.746;2022-09-01T06:34:44;104628.31;;;16.05;nan
24588;BME280;12744;52.270;9.746;2022-09-01T06:37:16;104674.66;;;16.49;nan
24588;BME280;12744;52.270;9.746;2022-09-01T06:39:53;104654.25;;;16.73;nan
24588;BME280;12744;52.270;9.746;2022-09-01T06:42:27;104610.44;;;16.73;nan
24588;BME280;12744;52.270;9.746;2022-09-01T06:45:03;104580.81;;;16.83;nan
24588;BME280;12744;52.270;9.746;2022-09-01T06:47:42;104550.31;;;16.92;nan
24588;BME280;12744;52.270;9.746;2022-09-01T06:50:16;104592.75;;;17.37;nan
24588;BME280;12744;52.270;9.746;2022-09-01T06:52:49;104529.03;;;17.29;nan
24588;BME280;12744;52.270;9.746;2022-09-01T06:55:31;104442.41;;;16.87;nan
24588;BME280;12744;52.270;9.746;2022-09-01T06:58:08;104469.91;;;17.13;nan
24588;BME280;12744;52.270;9.746;2022-09-01T07:00:42;104427.06;;;16.99;nan
24588;BME280;12744;52.270;9.746;2022-09-01T07:03:15;104463.88;;;17.31;nan
24588;BME280;12744;52.270;9.746;2022-09-01T07:06:09;104478.34;;;18.05;nan
24588;BME280;12744;52.270;9.746;2022-09-01T07:09:13;104418.22;;;17.77;nan
24588;BME280;12744;52.270;9.746;2022-09-01T07:11:46;104417.38;;;18.09;nan
24588;BME280;12744;52.270;9.746;2022-09-01T07:14:19;104376.31;;;18.34;nan
24588;BME280;12744;52.270;9.746;2022-09-01T07:16:50;104324.94;;;18.61;nan
24588;BME280;12744;52.270;9.746;2022-09-01T07:19:22;104225.69;;;18.51;nan
24588;BME280;12744;52.270;9.746;2022-09-01T07:21:58;104177.72;;;18.53;nan
24588;BME280;12744;52.270;9.746;2022-09-01T07:24:30;104085.34;;;18.27;nan
24588;BME280;12744;52.270;9.746;2022-09-01T07:27:20;104041.63;;;18.57;nan
24588;BME280;12744;52.270;9.746;2022-09-01T07:29:57;104067.38;;;19.24;nan
24588;BME280;12744;52.270;9.746;2022-09-01T07:32:28;103952.91;;;19.11;nan
24588;BME280;12744;52.270;9.746;2022-09-01T07:35:00;103940.75;;;19.19;nan
24588;BME280;12744;52.270;9.746;2022-09-01T07:37:32;103874.84;;;19.42;nan
24588;BME280;12744;52.270;9.746;2022-09-01T07:40:10;103812.94;;;20.20;nan
24588;BME280;12744;52.270;9.746;2022-09-01T07:43:15;103653.53;;;20.07;nan
24588;BME280;12744;52.270;9.746;2022-09-01T07:46:16;103525.97;;;20.02;nan
24588;BME280;12744;52.270;9.746;2022-09-01T07:48:51;103412.78;;;19.98;nan
24588;BME280;12744;52.270;9.746;2022-09-01T07:51:24;103368.31;;;20.06;nan
24588;BME280;12744;52.270;9.746;2022-09-01T07:53:57;103318.06;;;20.71;nan
24588;BME280;12744;52.270;9.746;2022-09-01T07:56:29;103103.06;;;20.12;nan
24588;BME280;12744;52.270;9.746;2022-09-01T07:59:01;103021.22;;;19.81;nan
24588;BME280;12744;52.270;9.746;2022-09-01T08:01:33;102955.72;;;20.32;nan
24588;BME280;12744;52.270;9.746;2022-09-01T08:04:05;102864.94;;;20.10;nan
24588;BME280;12744;52.270;9.746;2022-09-01T08:06:36;102822.34;;;20.69;nan
24588;BME280;12744;52.270;9.746;2022-09-01T08:09:08;102654.63;;;20.83;nan
24588;BME280;12744;52.270;9.746;2022-09-01T08:11:41;102555.97;;;20.60;nan
24588;BME280;12744;52.270;9.746;2022-09-01T08:14:13;102524.28;;;21.13;nan
24588;BME280;12744;52.270;9.746;2022-09-01T08:16:44;102409.94;;;20.85;nan
24588;BME280;12744;52.270;9.746;2022-09-01T08:19:15;102388.91;;;21.04;nan
24588;BME280;12744;52.270;9.746;2022-09-01T08:22:14;102293.88;;;20.91;nan
24588;BME280;12744;52.270;9.746;2022-09-01T08:24:58;102254.94;;;21.13;nan
24588;BME280;12744;52.270;9.746;2022-09-01T08:27:31;102225.19;;;21.10;nan
24588;BME280;12744;52.270;9.746;2022-09-01T08:30:05;102199.75;;;21.52;nan
24588;BME280;12744;52.270;9.746;2022-09-01T08:32:38;102162.28;;;21.51;nan
24588;BME280;12744;52.270;9.746;2022-09-01T08:35:12;102040.19;;;21.40;nan
24588;BME280;12744;52.270;9.746;2022-09-01T08:37:46;101983.94;;;21.41;nan
24588;BME280;12744;52.270;9.746;2022-09-01T08:40:18;101950.28;;;21.21;nan
24588;BME280;12744;52.270;9.746;2022-09-01T08:43:10;101929.13;;;21.35;nan
24588;BME280;12744;52.270;9.746;2022-09-01T08:48:26;101747.88;;;22.37;nan
24588;BME280;12744;52.270;9.746;2022-09-01T08:51:22;101660.94;;;22.48;nan
24588;BME280;12744;52.270;9.746;2022-09-01T08:54:13;101612.53;;;22.64;nan
24588;BME280;12744;52.270;9.746;2022-09-01T08:57:00;101570.72;;;23.02;nan
24588;BME280;12744;52.270;9.746;2022-09-01T08:59:52;101537.88;;;21.66;nan
24588;BME280;12744;52.270;9.746;2022-09-01T09:16:41;101036.81;;;22.65;nan
24588;BME280;12744;52.270;9.746;2022-09-01T09:19:23;101095.94;;;22.81;nan
24588;BME280;12744;52.270;9.746;2022-09-01T09:21:58;100945.63;;;23.29;nan
24588;BME280;12744;52.270;9.746;2022-09-01T09:24:35;100883.50;;;23.35;nan
24588;BME280;12744;52.270;9.746;2022-09-01T09:27:28;100915.81;;;23.43;nan
24588;BME280;12744;52.270;9.746;2022-09-01T09:35:45;100699.78;;;23.77;nan
24588;BME280;12744;52.270;9.746;2022-09-01T09:38:20;100660.00;;;24.63;nan
24588;BME280;12744;52.270;9.746;2022-09-01T09:41:08;100479.91;;;24.63;nan
24588;BME280;12744;52.270;9.746;2022-09-01T09:46:51;100428.50;;;24.50;nan
24588;BME280;12744;52.270;9.746;2022-09-01T09:49:28;100387.66;;;24.47;nan
24588;BME280;12744;52.270;9.746;2022-09-01T09:54:41;100383.38;;;24.22;nan
24588;BME280;12744;52.270;9.746;2022-09-01T09:57:28;100412.63;;;24.90;nan
24588;BME280;12744;52.270;9.746;2022-09-01T10:02:45;100342.31;;;24.67;nan
24588;BME280;12744;52.270;9.746;2022-09-01T10:05:33;100342.13;;;24.60;nan
24588;BME280;12744;52.270;9.746;2022-09-01T10:10:56;100205.69;;;25.13;nan
24588;BME280;12744;52.270;9.746;2022-09-01T10:13:28;100183.03;;;24.61;nan
24588;BME280;12744;52.270;9.746;2022-09-01T10:16:02;100149.63;;;24.54;nan
24588;BME280;12744;52.270;9.746;2022-09-01T10:18:39;100181.91;;;24.62;nan
24588;BME280;12744;52.270;9.746;2022-09-01T10:21:15;100257.44;;;25.25;nan
24588;BME280;12744;52.270;9.746;2022-09-01T10:23:46;100130.41;;;25.50;nan
24588;BME280;12744;52.270;9.746;2022-09-01T10:26:22;100065.00;;;25.29;nan
24588;BME280;12744;52.270;9.746;2022-09-01T10:29:00;99986.25;;;25.11;nan
24588;BME280;12744;52.270;9.746;2022-09-01T10:31:36;99919.63;;;25.08;nan
24588;BME280;12744;52.270;9.746;2022-09-01T10:34:11;99909.16;;;24.98;nan
24588;BME280;12744;52.270;9.746;2022-09-01T10:36:45;99965.41;;;25.89;nan
24588;BME280;12744;52.270;9.746;2022-09-01T10:39:18;99792.28;;;25.18;nan
24588;BME280;12744;52.270;9.746;2022-09-01T10:41:53;99813.06;;;25.05;nan
24588;BME280;12744;52.270;9.746;2022-09-01T10:44:33;99816.41;;;25.40;nan
24588;BME280;12744;52.270;9.746;2022-09-01T10:53:01;99869.88;;;25.41;nan
24588;BME280;12744;52.270;9.746;2022-09-01T10:55:37;99796.50;;;24.86;nan
24588;BME280;12744;52.270;9.746;2022-09-01T10:58:24;99841.50;;;26.03;nan
24588;BME280;12744;52.270;9.746;2022-09-01T11:01:00;99686.16;;;25.21;nan
24588;BME280;12744;52.270;9.746;2022-09-01T11:03:47;99828.63;;;25.62;nan
24588;BME280;12744;52.270;9.746;2022-09-01T11:09:22;99577.91;;;25.40;nan
24588;BME280;12744;52.270;9.746;2022-09-01T11:14:25;99886.75;;;26.07;nan
24588;BME280;12744;52.270;9.746;2022-09-01T11:19:55;99769.28;;;26.33;nan
24588;BME280;12744;52.270;9.746;2022-09-01T11:22:31;99816.94;;;25.23;nan
24588;BME280;12744;52.270;9.746;2022-09-01T11:30:21;99710.22;;;26.84;nan
24588;BME280;12744;52.270;9.746;2022-09-01T11:33:00;99742.03;;;26.46;nan
24588;BME280;12744;52.270;9.746;2022-09-01T11:35:33;99742.25;;;26.30;nan
24588;BME280;12744;52.270;9.746;2022-09-01T11:38:06;99694.22;;;26.73;nan
24588;BME280;12744;52.270;9.746;2022-09-01T11:40:38;99626.66;;;26.62;nan
24588;BME280;12744;52.270;9.746;2022-09-01T11:43:13;99588.38;;;27.00;nan
24588;BME280;12744;52.270;9.746;2022-09-01T11:46:19;99637.56;;;27.64;nan
24588;BME280;12744;52.270;9.746;2022-09-01T11:48:51;99503.13;;;26.46;nan
24588;BME280;12744;52.270;9.746;2022-09-01T11:51:23;99577.47;;;26.66;nan
24588;BME280;12744;52.270;9.746;2022-09-01T11:53:58;99462.72;;;26.66;nan
24588;BME280;12744;52.270;9.746;2022-09-01T11:56:30;99508.25;;;26.40;nan
24588;BME280;12744;52.270;9.746;2022-09-01T11:59:01;99455.47;;;26.40;nan
24588;BME280;12744;52.270;9.746;2022-09-01T12:01:35;99516.56;;;27.09;nan
24588;BME280;12744;52.270;9.746;2022-09-01T12:06:59;99526.63;;;26.62;nan
24588;BME280;12744;52.270;9.746;2022-09-01T12:09:44;99525.25;;;27.04;nan
24588;BME280;12744;52.270;9.746;2022-09-01T12:12:33;99570.81;;;27.99;nan
24588;BME280;12744;52.270;9.746;2022-09-01T12:15:23;99375.13;;;27.25;nan
24588;BME280;12744;52.270;9.746;2022-09-01T12:18:18;99368.28;;;26.69;nan
24588;BME280;12744;52.270;9.746;2022-09-01T12:20:51;99360.00;;;26.77;nan
24588;BME280;12744;52.270;9.746;2022-09-01T12:23:30;99403.28;;;26.78;nan
24588;BME280;12744;52.270;9.746;2022-09-01T12:26:11;99313.06;;;25.68;nan
24588;BME280;12744;52.270;9.746;2022-09-01T12:28:43;99309.59;;;24.83;nan
24588;BME280;12744;52.270;9.746;2022-09-01T12:31:22;99397.16;;;24.91;nan
24588;BME280;12744;52.270;9.746;2022-09-01T12:33:55;99445.34;;;25.57;nan
24588;BME280;12744;52.270;9.746;2022-09-01T12:36:30;99552.22;;;25.87;nan
24588;BME280;12744;52.270;9.746;2022-09-01T12:39:18;99524.88;;;26.33;nan
24588;BME280;12744;52.270;9.746;2022-09-01T12:42:03;99492.28;;;26.99;nan
24588;BME280;12744;52.270;9.746;2022-09-01T12:47:43;99443.34;;;26.77;nan
24588;BME280;12744;52.270;9.746;2022-09-01T12:53:03;99453.50;;;26.44;nan
24588;BME280;12744;52.270;9.746;2022-09-01T12:55:56;99413.13;;;26.64;nan
24588;BME280;12744;52.270;9.746;2022-09-01T12:58:30;99381.19;;;25.65;nan
24588;BME280;12744;52.270;9.746;2022-09-01T13:01:04;99379.03;;;25.95;nan
24588;BME280;12744;52.270;9.746;2022-09-01T13:03:37;99411.09;;;25.86;nan
24588;BME280;12744;52.270;9.746;2022-09-01T13:06:08;99407.09;;;25.80;nan
24588;BME280;12744;52.270;9.746;2022-09-01T13:08:40;99402.69;;;26.37;nan
24588;BME280;12744;52.270;9.746;2022-09-01T13:11:16;99421.63;;;27.17;nan
24588;BME280;12744;52.270;9.746;2022-09-01T13:13:48;99432.41;;;27.61;nan
24588;BME280;12744;52.270;9.746;2022-09-01T13:16:19;99437.97;;;28.07;nan
24588;BME280;12744;52.270;9.746;2022-09-01T13:18:50;99377.53;;;27.09;nan
24588;BME280;12744;52.270;9.746;2022-09-01T13:21:21;99409.28;;;27.04;nan
24588;BME280;12744;52.270;9.746;2022-09-01T13:23:52;99403.28;;;26.85;nan
24588;BME280;12744;52.270;9.746;2022-09-01T13:26:24;99493.63;;;27.72;nan
24588;BME280;12744;52.270;9.746;2022-09-01T13:28:57;99451.44;;;27.34;nan
24588;BME280;12744;52.270;9.746;2022-09-01T13:31:28;99415.59;;;26.91;nan
24588;BME280;12744;52.270;9.746;2022-09-01T13:34:01;99459.69;;;26.13;nan
24588;BME280;12744;52.270;9.746;2022-09-01T13:36:32;99475.00;;;26.00;nan
24588;BME280;12744;52.270;9.746;2022-09-01T13:39:03;99468.78;;;26.86;nan
24588;BME280;12744;52.270;9.746;2022-09-01T13:41:34;99477.66;;;27.26;nan
24588;BME280;12744;52.270;9.746;2022-09-01T13:44:05;99462.03;;;26.83;nan
24588;BME280;12744;52.270;9.746;2022-09-01T13:46:36;99456.16;;;27.13;nan
24588;BME280;12744;52.270;9.746;2022-09-01T13:49:08;99579.13;;;27.71;nan
24588;BME280;12744;52.270;9.746;2022-09-01T13:51:39;99425.59;;;27.27;nan
24588;BME280;12744;52.270;9.746;2022-09-01T13:54:10;99510.59;;;27.14;nan
24588;BME280;12744;52.270;9.746;2022-09-01T13:56:42;99458.44;;;26.83;nan
24588;BME280;12744;52.270;9.746;2022-09-01T13:59:13;99620.13;;;27.88;nan
24588;BME280;12744;52.270;9.746;2022-09-01T14:01:45;99517.50;;;27.87;nan
24588;BME280;12744;52.270;9.746;2022-09-01T14:04:16;99465.00;;;27.64;nan
24588;BME280;12744;52.270;9.746;2022-09-01T14:06:48;99360.00;;;26.91;nan
24588;BME280;12744;52.270;9.746;2022-09-01T14:09:19;99519.09;;;27.70;nan
24588;BME280;12744;52.270;9.746;2022-09-01T14:11:54;99485.50;;;27.00;nan
24588;BME280;12744;52.270;9.746;2022-09-01T14:14:25;99666.78;;;28.58;nan
24588;BME280;12744;52.270;9.746;2022-09-01T14:16:56;99450.56;;;27.02;nan
24588;BME280;12744;52.270;9.746;2022-09-01T14:19:28;99464.94;;;27.18;nan
24588;BME280;12744;52.270;9.746;2022-09-01T14:22:00;99403.41;;;27.48;nan
24588;BME280;12744;52.270;9.746;2022-09-01T14:24:35;99445.13;;;27.55;nan
24588;BME280;12744;52.270;9.746;2022-09-01T14:27:06;99394.25;;;27.44;nan
24588;BME280;12744;52.270;9.746;2022-09-01T14:29:37;99350.50;;;27.27;nan
24588;BME280;12744;52.270;9.746;2022-09-01T14:32:09;99379.09;;;27.06;nan
24588;BME280;12744;52.270;9.746;2022-09-01T14:34:40;99462.22;;;27.85;nan
24588;BME280;12744;52.270;9.746;2022-09-01T14:37:11;99476.16;;;28.03;nan
24588;BME280;12744;52.270;9.746;2022-09-01T14:39:50;99453.09;;;27.92;nan
24588;BME280;12744;52.270;9.746;2022-09-01T14:42:22;99387.09;;;27.50;nan
24588;BME280;12744;52.270;9.746;2022-09-01T14:44:55;99441.03;;;26.89;nan
24588;BME280;12744;52.270;9.746;2022-09-01T14:47:26;99519.88;;;27.67;nan
24588;BME280;12744;52.270;9.746;2022-09-01T14:49:57;99333.72;;;26.63;nan
24588;BME280;12744;52.270;9.746;2022-09-01T14:52:29;99347.25;;;25.86;nan
24588;BME280;12744;52.270;9.746;2022-09-01T14:55:00;99275.59;;;24.86;nan
24588;BME280;12744;52.270;9.746;2022-09-01T14:57:34;99452.91;;;25.60;nan
24588;BME280;12744;52.270;9.746;2022-09-01T15:00:07;99376.47;;;25.18;nan